createdAt,value
2018-09-26T00:00:00.773Z,90.30
2018-09-26T00:02:32.353Z,90.30
2018-09-26T00:05:01.159Z,90.20
2018-09-26T00:07:29.896Z,90.20
2018-09-26T00:09:58.694Z,90.10
2018-09-26T00:12:27.445Z,90.10
2018-09-26T00:14:56.194Z,90.00
2018-09-26T00:17:25.179Z,90.00
2018-09-26T00:19:53.857Z,89.70
2018-09-26T00:22:22.844Z,89.60
2018-09-26T00:24:51.549Z,89.40
2018-09-26T00:27:20.350Z,89.30
2018-09-26T00:29:49.051Z,89.20
2018-09-26T00:32:17.869Z,89.20
2018-09-26T00:34:46.642Z,89.00
2018-09-26T00:37:15.406Z,88.90
2018-09-26T00:39:44.070Z,88.90
2018-09-26T00:42:12.911Z,88.80
2018-09-26T00:44:41.660Z,88.90
2018-09-26T00:47:10.450Z,89.00
2018-09-26T00:49:39.164Z,88.90
2018-09-26T00:52:07.978Z,88.80
2018-09-26T00:54:36.726Z,88.90
2018-09-26T00:57:05.532Z,88.80
2018-09-26T00:59:34.236Z,89.00
2018-09-26T01:02:02.957Z,89.20
2018-09-26T01:04:31.651Z,89.30
2018-09-26T01:07:00.634Z,89.30
2018-09-26T01:09:29.387Z,89.40
2018-09-26T01:11:58.278Z,89.50
2018-09-26T01:14:27.106Z,89.40
2018-09-26T01:16:55.778Z,89.40
2018-09-26T01:19:24.629Z,89.50
2018-09-26T01:21:53.334Z,89.50
2018-09-26T01:24:22.196Z,89.60
2018-09-26T01:26:50.973Z,89.60
2018-09-26T01:29:19.697Z,89.60
2018-09-26T01:31:48.647Z,89.60
2018-09-26T01:34:17.390Z,89.50
2018-09-26T01:36:46.712Z,89.70
2018-09-26T01:39:15.496Z,89.80
2018-09-26T01:41:44.175Z,89.70
2018-09-26T01:44:12.986Z,89.70
2018-09-26T01:46:41.721Z,89.70
2018-09-26T01:49:10.409Z,89.60
2018-09-26T01:51:39.162Z,89.60
2018-09-26T01:54:08.014Z,89.60
2018-09-26T01:56:36.879Z,89.60
2018-09-26T01:59:05.638Z,89.70
2018-09-26T02:01:34.367Z,89.70
2018-09-26T02:04:03.052Z,89.80
2018-09-26T02:06:32.353Z,90.10
2018-09-26T02:09:01.034Z,89.90
2018-09-26T02:11:33.161Z,89.90
2018-09-26T02:14:01.997Z,89.80
2018-09-26T02:16:30.830Z,89.80
2018-09-26T02:19:00.603Z,89.80
2018-09-26T02:21:29.582Z,89.80
2018-09-26T02:23:58.411Z,89.90
2018-09-26T02:26:27.192Z,90.00
2018-09-26T02:28:56.046Z,90.00
2018-09-26T02:31:25.583Z,90.00
2018-09-26T02:33:54.413Z,90.10
2018-09-26T02:36:24.291Z,90.10
2018-09-26T02:38:53.036Z,90.10
2018-09-26T02:41:22.566Z,90.20
2018-09-26T02:43:51.421Z,90.20
2018-09-26T02:46:20.093Z,90.60
2018-09-26T02:49:09.337Z,90.30
2018-09-26T02:51:38.478Z,90.30
2018-09-26T02:54:07.978Z,90.40
2018-09-26T02:56:36.979Z,90.40
2018-09-26T02:59:05.729Z,90.50
2018-09-26T03:01:34.526Z,91.10
2018-09-26T03:04:03.201Z,91.10
2018-09-26T03:06:31.956Z,90.70
2018-09-26T03:09:00.647Z,90.70
2018-09-26T03:11:29.409Z,90.70
2018-09-26T03:13:58.113Z,90.70
2018-09-26T03:16:26.897Z,90.80
2018-09-26T03:18:55.771Z,90.90
2018-09-26T03:21:24.682Z,91.00
2018-09-26T03:23:54.900Z,91.00
2018-09-26T03:26:27.873Z,91.00
2018-09-26T03:28:57.342Z,91.00
2018-09-26T03:31:26.135Z,91.10
2018-09-26T03:33:55.594Z,91.20
2018-09-26T03:36:24.512Z,91.30
2018-09-26T03:38:53.199Z,91.60
2018-09-26T03:41:22.090Z,91.70
2018-09-26T03:43:50.842Z,91.40
2018-09-26T03:46:19.566Z,91.50
2018-09-26T03:48:48.261Z,91.50
2018-09-26T03:51:17.035Z,91.60
2018-09-26T03:53:45.770Z,91.60
2018-09-26T03:56:14.642Z,91.60
2018-09-26T03:58:43.366Z,91.60
2018-09-26T04:01:12.209Z,91.70
2018-09-26T04:03:41.028Z,91.70
2018-09-26T04:06:09.790Z,91.70
2018-09-26T04:08:38.630Z,91.80
2018-09-26T04:11:07.526Z,91.90
2018-09-26T04:13:36.211Z,91.90
2018-09-26T04:16:05.042Z,92.00
2018-09-26T04:18:33.693Z,92.00
2018-09-26T04:21:02.566Z,92.10
2018-09-26T04:23:31.342Z,92.10
2018-09-26T04:26:00.108Z,92.50
2018-09-26T04:28:28.982Z,92.20
2018-09-26T04:30:57.889Z,92.20
2018-09-26T04:33:26.981Z,92.30
2018-09-26T04:35:55.629Z,92.30
2018-09-26T04:38:24.508Z,92.40
2018-09-26T04:40:53.398Z,92.40
2018-09-26T04:43:22.344Z,92.40
2018-09-26T04:45:51.182Z,92.40
2018-09-26T04:48:19.883Z,92.50
2018-09-26T04:50:48.736Z,92.60
2018-09-26T04:53:17.450Z,92.60
2018-09-26T04:55:46.322Z,92.60
2018-09-26T04:58:15.193Z,92.60
2018-09-26T05:00:43.966Z,92.70
2018-09-26T05:03:12.806Z,92.80
2018-09-26T05:05:42.698Z,92.80
2018-09-26T05:08:11.533Z,92.90
2018-09-26T05:10:40.337Z,92.90
2018-09-26T05:13:09.088Z,93.00
2018-09-26T05:15:38.279Z,93.10
2018-09-26T05:18:06.654Z,93.10
2018-09-26T05:20:35.544Z,93.10
2018-09-26T05:23:05.116Z,93.60
2018-09-26T05:25:34.434Z,93.70
2018-09-26T05:28:03.318Z,93.30
2018-09-26T05:30:32.292Z,93.30
2018-09-26T05:33:00.932Z,93.80
2018-09-26T05:35:29.698Z,93.80
2018-09-26T05:37:58.539Z,93.90
2018-09-26T05:40:27.378Z,93.90
2018-09-26T05:42:56.246Z,93.50
2018-09-26T05:45:25.274Z,93.50
2018-09-26T05:47:54.196Z,93.60
2018-09-26T05:50:23.560Z,93.60
2018-09-26T05:52:52.999Z,93.60
2018-09-26T05:55:22.144Z,93.60
2018-09-26T05:57:51.301Z,93.60
2018-09-26T06:00:20.205Z,93.70
2018-09-26T06:02:49.031Z,93.60
2018-09-26T06:05:17.993Z,93.60
2018-09-26T06:07:46.846Z,93.70
2018-09-26T06:10:15.719Z,93.70
2018-09-26T06:12:44.560Z,93.50
2018-09-26T06:15:13.359Z,93.50
2018-09-26T06:17:42.067Z,93.40
2018-09-26T06:20:11.035Z,93.30
2018-09-26T06:22:39.932Z,93.20
2018-09-26T06:25:08.757Z,93.20
2018-09-26T06:27:37.456Z,93.10
2018-09-26T06:30:07.790Z,93.10
2018-09-26T06:32:36.810Z,93.10
2018-09-26T06:35:05.879Z,93.00
2018-09-26T06:37:35.516Z,93.30
2018-09-26T06:40:04.340Z,93.00
2018-09-26T06:42:33.233Z,93.00
2018-09-26T06:45:02.124Z,93.00
2018-09-26T06:47:31.711Z,93.00
2018-09-26T06:50:00.480Z,93.00
2018-09-26T06:52:29.192Z,93.00
2018-09-26T06:54:57.970Z,92.90
2018-09-26T06:57:26.705Z,92.90
2018-09-26T06:59:55.891Z,92.90
2018-09-26T07:02:24.831Z,92.90
2018-09-26T07:04:53.569Z,92.70
2018-09-26T07:07:22.729Z,92.70
2018-09-26T07:09:51.476Z,92.50
2018-09-26T07:12:20.356Z,92.30
2018-09-26T07:14:50.055Z,92.00
2018-09-26T07:17:18.897Z,92.00
2018-09-26T07:19:47.702Z,91.90
2018-09-26T07:22:17.240Z,91.90
2018-09-26T07:24:45.940Z,91.90
2018-09-26T07:27:14.744Z,91.70
2018-09-26T07:29:43.488Z,91.40
2018-09-26T07:32:12.371Z,91.30
2018-09-26T07:34:41.191Z,91.10
2018-09-26T07:37:09.945Z,90.90
2018-09-26T07:39:39.196Z,90.80
2018-09-26T07:42:08.050Z,90.60
2018-09-26T07:44:36.851Z,90.50
2018-09-26T07:47:05.675Z,90.40
2018-09-26T07:49:34.469Z,90.60
2018-09-26T07:52:03.337Z,90.30
2018-09-26T07:54:32.131Z,90.00
2018-09-26T07:57:00.844Z,89.80
2018-09-26T07:59:29.577Z,89.00
2018-09-26T08:01:58.371Z,89.20
2018-09-26T08:04:27.260Z,89.10
2018-09-26T08:06:56.038Z,88.80
2018-09-26T08:09:25.061Z,88.30
2018-09-26T08:11:54.008Z,88.00
2018-09-26T08:14:22.868Z,87.60
2018-09-26T08:16:51.775Z,87.30
2018-09-26T08:19:20.507Z,87.00
2018-09-26T08:21:49.354Z,86.90
2018-09-26T08:24:18.258Z,86.70
2018-09-26T08:26:47.162Z,87.20
2018-09-26T08:29:15.873Z,86.80
2018-09-26T08:31:44.750Z,87.30
2018-09-26T08:34:13.586Z,87.20
2018-09-26T08:36:42.384Z,86.30
2018-09-26T08:39:12.656Z,86.50
2018-09-26T08:41:41.861Z,86.10
2018-09-26T08:44:11.101Z,86.20
2018-09-26T08:46:40.056Z,85.70
2018-09-26T08:49:08.858Z,85.70
2018-09-26T08:51:38.845Z,85.90
2018-09-26T08:54:07.652Z,85.40
2018-09-26T08:56:36.410Z,85.30
2018-09-26T08:59:05.196Z,86.00
2018-09-26T09:01:40.358Z,86.00
2018-09-26T09:04:09.098Z,86.10
2018-09-26T09:06:37.867Z,86.30
2018-09-26T09:09:07.882Z,86.70
2018-09-26T09:11:39.080Z,86.30
2018-09-26T09:14:08.310Z,86.20
2018-09-26T09:16:37.253Z,86.40
2018-09-26T09:19:06.029Z,86.30
2018-09-26T09:21:34.935Z,86.40
2018-09-26T09:24:03.802Z,86.20
2018-09-26T09:26:32.673Z,86.10
2018-09-26T09:29:01.416Z,85.50
2018-09-26T09:31:31.069Z,84.90
2018-09-26T09:34:00.023Z,84.90
2018-09-26T09:36:28.865Z,84.80
2018-09-26T09:38:57.697Z,85.10
2018-09-26T09:41:26.433Z,85.30
2018-09-26T09:43:55.176Z,85.80
2018-09-26T09:46:24.207Z,85.10
2018-09-26T09:48:53.201Z,84.90
2018-09-26T09:51:22.075Z,84.90
2018-09-26T09:53:50.881Z,85.00
2018-09-26T09:56:19.678Z,85.00
2018-09-26T09:58:48.453Z,85.10
2018-09-26T10:01:22.634Z,85.20
2018-09-26T10:03:51.534Z,84.90
2018-09-26T10:06:20.258Z,85.10
2018-09-26T10:08:49.327Z,85.40
2018-09-26T10:11:18.103Z,85.10
2018-09-26T10:13:47.121Z,85.00
2018-09-26T10:16:15.806Z,84.70
2018-09-26T10:18:45.095Z,84.10
2018-09-26T10:21:14.147Z,84.00
2018-09-26T10:23:42.993Z,84.10
2018-09-26T10:26:11.997Z,84.30
2018-09-26T10:28:41.330Z,84.20
2018-09-26T10:31:10.523Z,84.30
2018-09-26T10:33:39.460Z,84.00
2018-09-26T10:36:08.141Z,83.70
2018-09-26T10:38:37.745Z,83.70
2018-09-26T10:41:06.635Z,83.50
2018-09-26T10:43:36.219Z,83.50
2018-09-26T10:46:04.958Z,83.40
2018-09-26T10:48:33.891Z,83.00
2018-09-26T10:51:02.832Z,82.90
2018-09-26T10:53:31.605Z,82.50
2018-09-26T10:56:00.306Z,82.00
2018-09-26T10:58:29.679Z,82.10
2018-09-26T11:00:58.596Z,81.60
2018-09-26T11:03:27.478Z,81.30
2018-09-26T11:05:56.189Z,81.20
2018-09-26T11:08:24.972Z,81.30
2018-09-26T11:10:53.749Z,81.40
2018-09-26T11:13:22.634Z,81.70
2018-09-26T11:15:51.999Z,81.80
2018-09-26T11:18:21.025Z,81.70
2018-09-26T11:20:50.046Z,81.10
2018-09-26T11:23:19.527Z,81.20
2018-09-26T11:25:48.468Z,81.40
2018-09-26T11:28:17.344Z,81.30
2018-09-26T11:30:47.392Z,81.40
2018-09-26T11:33:16.227Z,81.70
2018-09-26T11:35:45.096Z,81.80
2018-09-26T11:38:14.098Z,82.10
2018-09-26T11:40:44.347Z,82.60
2018-09-26T11:43:13.037Z,82.10
2018-09-26T11:45:42.000Z,82.00
2018-09-26T11:48:11.018Z,81.80
2018-09-26T11:50:40.244Z,81.30
2018-09-26T11:53:09.100Z,81.00
2018-09-26T11:55:37.880Z,80.50
2018-09-26T11:58:06.937Z,81.00
2018-09-26T12:00:35.839Z,80.70
2018-09-26T12:03:04.570Z,80.40
2018-09-26T12:05:33.366Z,80.30
2018-09-26T12:08:02.137Z,80.10
2018-09-26T12:10:30.923Z,80.20
2018-09-26T12:12:59.710Z,80.00
2018-09-26T12:15:31.637Z,79.50
2018-09-26T12:18:01.635Z,79.20
2018-09-26T12:20:31.172Z,78.70
2018-09-26T12:23:00.174Z,78.80
2018-09-26T12:25:29.149Z,78.80
2018-09-26T12:27:58.072Z,79.30
2018-09-26T12:30:27.109Z,79.20
2018-09-26T12:32:56.147Z,78.80
2018-09-26T12:35:24.992Z,78.70
2018-09-26T12:37:53.735Z,78.00
2018-09-26T12:40:22.817Z,77.20
2018-09-26T12:42:51.856Z,77.50
2018-09-26T12:45:20.767Z,76.80
2018-09-26T12:47:51.788Z,76.90
2018-09-26T12:50:20.682Z,76.90
2018-09-26T12:52:49.646Z,76.80
2018-09-26T12:55:18.463Z,76.60
2018-09-26T12:57:47.266Z,76.20
2018-09-26T13:00:16.098Z,75.70
2018-09-26T13:02:44.956Z,75.20
2018-09-26T13:05:13.747Z,74.70
2018-09-26T13:07:42.548Z,74.60
2018-09-26T13:10:11.339Z,73.80
2018-09-26T13:12:40.334Z,74.00
2018-09-26T13:15:09.195Z,73.70
2018-09-26T13:17:37.946Z,73.30
2018-09-26T13:20:08.427Z,73.40
2018-09-26T13:22:37.419Z,73.20
2018-09-26T13:25:06.264Z,72.30
2018-09-26T13:27:35.022Z,71.60
2018-09-26T13:30:03.888Z,71.50
2018-09-26T13:32:32.729Z,71.30
2018-09-26T13:35:01.580Z,71.20
2018-09-26T13:37:30.375Z,71.10
2018-09-26T13:39:59.170Z,70.60
2018-09-26T13:42:28.506Z,69.50
2018-09-26T13:44:57.567Z,68.50
2018-09-26T13:47:26.523Z,67.90
2018-09-26T13:49:55.378Z,68.00
2018-09-26T13:52:25.168Z,68.50
2018-09-26T13:54:54.119Z,68.70
2018-09-26T13:57:22.895Z,69.50
2018-09-26T13:59:51.583Z,69.40
2018-09-26T14:02:20.446Z,69.00
2018-09-26T14:04:49.255Z,68.40
2018-09-26T14:07:17.955Z,67.60
2018-09-26T14:09:46.741Z,67.30
2018-09-26T14:12:15.519Z,66.30
2018-09-26T14:14:44.567Z,66.10
2018-09-26T14:17:13.419Z,66.90
2018-09-26T14:19:45.312Z,67.70
2018-09-26T14:22:14.844Z,67.50
2018-09-26T14:24:44.408Z,67.50
2018-09-26T14:27:13.328Z,68.20
2018-09-26T14:29:42.155Z,68.70
2018-09-26T14:32:11.221Z,67.60
2018-09-26T14:34:40.034Z,67.10
2018-09-26T14:37:08.827Z,67.20
2018-09-26T14:39:38.820Z,67.60
2018-09-26T14:42:07.663Z,67.40
2018-09-26T14:44:36.444Z,68.20
2018-09-26T14:47:05.285Z,68.50
2018-09-26T14:49:34.172Z,68.60
2018-09-26T14:52:03.095Z,68.40
2018-09-26T14:54:31.965Z,68.10
2018-09-26T14:57:00.876Z,67.70
2018-09-26T14:59:29.879Z,68.20
2018-09-26T15:01:59.117Z,68.50
2018-09-26T15:04:28.741Z,68.40
2018-09-26T15:06:57.718Z,68.40
2018-09-26T15:09:26.539Z,67.50
2018-09-26T15:11:55.556Z,67.20
2018-09-26T15:14:24.478Z,67.50
2018-09-26T15:16:53.828Z,67.60
2018-09-26T15:19:22.739Z,67.30
2018-09-26T15:21:52.705Z,67.60
2018-09-26T15:24:21.542Z,67.40
2018-09-26T15:26:50.554Z,67.30
2018-09-26T15:29:19.581Z,67.30
2018-09-26T15:31:48.754Z,67.00
2018-09-26T15:34:17.632Z,66.50
2018-09-26T15:36:46.502Z,66.10
2018-09-26T15:39:15.388Z,65.80
2018-09-26T15:41:44.387Z,65.70
2018-09-26T15:44:13.200Z,65.60
2018-09-26T15:46:42.094Z,66.20
2018-09-26T15:49:11.005Z,68.20
2018-09-26T15:51:39.865Z,67.70
2018-09-26T15:54:09.050Z,67.90
2018-09-26T15:56:38.422Z,68.30
2018-09-26T15:59:07.336Z,68.60
2018-09-26T16:01:36.369Z,69.10
2018-09-26T16:04:05.286Z,69.60
2018-09-26T16:06:34.018Z,70.40
2018-09-26T16:09:03.100Z,70.10
2018-09-26T16:11:31.987Z,70.30
2018-09-26T16:14:00.989Z,70.70
2018-09-26T16:16:31.266Z,70.30
2018-09-26T16:19:00.112Z,68.60
2018-09-26T16:21:29.114Z,68.00
2018-09-26T16:23:57.919Z,67.50
2018-09-26T16:26:26.763Z,67.40
2018-09-26T16:28:55.912Z,67.30
2018-09-26T16:31:24.863Z,67.40
2018-09-26T16:33:53.779Z,67.40
2018-09-26T16:36:22.709Z,67.00
2018-09-26T16:38:51.432Z,67.20
2018-09-26T16:41:20.429Z,67.70
2018-09-26T16:43:49.198Z,67.60
2018-09-26T16:46:18.032Z,67.90
2018-09-26T16:48:46.693Z,68.20
2018-09-26T16:51:15.658Z,68.60
2018-09-26T16:53:44.549Z,69.90
2018-09-26T16:56:14.000Z,70.10
2018-09-26T16:58:43.258Z,70.70
2018-09-26T17:01:13.250Z,71.00
2018-09-26T17:03:42.364Z,71.30
2018-09-26T17:06:11.363Z,72.40
2018-09-26T17:08:40.270Z,72.40
2018-09-26T17:11:09.243Z,73.00
2018-09-26T17:13:38.276Z,73.30
2018-09-26T17:16:07.127Z,74.00
2018-09-26T17:18:42.568Z,74.20
2018-09-26T17:21:11.305Z,74.80
2018-09-26T17:23:40.191Z,75.10
2018-09-26T17:26:09.148Z,75.50
2018-09-26T17:28:38.071Z,75.90
2018-09-26T17:31:07.621Z,76.20
2018-09-26T17:33:36.660Z,76.50
2018-09-26T17:36:05.672Z,76.70
2018-09-26T17:38:34.828Z,77.30
2018-09-26T17:41:05.394Z,77.90
2018-09-26T17:43:35.974Z,78.40
2018-09-26T17:46:05.952Z,78.80
2018-09-26T17:48:39.253Z,79.10
2018-09-26T17:51:08.796Z,79.40
2018-09-26T17:53:38.895Z,79.50
2018-09-26T17:56:08.694Z,79.80
2018-09-26T17:58:37.668Z,79.90
2018-09-26T18:01:08.019Z,80.00
2018-09-26T18:03:37.027Z,80.10
2018-09-26T18:06:06.255Z,79.90
2018-09-26T18:08:35.086Z,80.00
2018-09-26T18:11:03.923Z,80.00
2018-09-26T18:13:32.675Z,80.00
2018-09-26T18:16:01.529Z,80.10
2018-09-26T18:18:30.323Z,80.10
2018-09-26T18:20:59.129Z,81.00
2018-09-26T18:23:28.935Z,80.70
2018-09-26T18:25:58.803Z,80.50
2018-09-26T18:28:27.526Z,80.60
2018-09-26T18:30:56.335Z,81.60
2018-09-26T18:33:25.225Z,81.00
2018-09-26T18:35:53.952Z,81.20
2018-09-26T18:38:22.873Z,81.40
2018-09-26T18:40:51.630Z,81.60
2018-09-26T18:43:20.611Z,81.90
2018-09-26T18:45:49.490Z,82.00
2018-09-26T18:48:18.363Z,82.20
2018-09-26T18:50:47.190Z,82.70
2018-09-26T18:53:16.083Z,82.70
2018-09-26T18:55:45.219Z,82.80
2018-09-26T18:58:15.197Z,83.10
2018-09-26T19:00:43.980Z,83.30
2018-09-26T19:03:12.887Z,83.50
2018-09-26T19:05:41.703Z,83.80
2018-09-26T19:08:10.448Z,84.70
2018-09-26T19:10:39.343Z,84.60
2018-09-26T19:13:08.180Z,84.80
2018-09-26T19:15:36.876Z,85.00
2018-09-26T19:18:05.608Z,85.00
2018-09-26T19:20:34.461Z,85.10
2018-09-26T19:23:03.133Z,85.30
2018-09-26T19:25:31.811Z,85.40
2018-09-26T19:28:00.623Z,85.60
2018-09-26T19:30:29.319Z,85.80
2018-09-26T19:32:58.084Z,86.00
2018-09-26T19:35:26.773Z,86.20
2018-09-26T19:37:55.519Z,86.50
2018-09-26T19:40:26.954Z,86.50
2018-09-26T19:43:04.592Z,86.60
2018-09-26T19:45:39.074Z,87.50
2018-09-26T19:48:07.865Z,87.30
2018-09-26T19:50:39.979Z,87.50
2018-09-26T19:53:09.488Z,87.70
2018-09-26T19:55:38.294Z,87.70
2018-09-26T19:58:07.007Z,87.80
2018-09-26T20:00:35.906Z,87.90
2018-09-26T20:03:05.306Z,88.20
2018-09-26T20:05:34.035Z,88.20
2018-09-26T20:08:02.772Z,88.30
2018-09-26T20:10:31.706Z,88.50
2018-09-26T20:13:00.522Z,88.80
2018-09-26T20:15:29.237Z,89.00
2018-09-26T20:17:59.419Z,89.10
2018-09-26T20:20:29.251Z,89.20
2018-09-26T20:22:58.418Z,89.40
2018-09-26T20:25:27.262Z,89.40
2018-09-26T20:27:56.088Z,89.70
2018-09-26T20:30:27.632Z,89.70
2018-09-26T20:32:56.715Z,89.90
2018-09-26T20:35:25.601Z,90.10
2018-09-26T20:37:54.392Z,90.10
2018-09-26T20:40:24.446Z,90.10
2018-09-26T20:42:53.246Z,90.20
2018-09-26T20:45:22.203Z,90.30
2018-09-26T20:47:50.985Z,90.30
2018-09-26T20:50:19.752Z,90.40
2018-09-26T20:52:49.289Z,90.50
2018-09-26T20:55:18.087Z,90.50
2018-09-26T20:57:46.960Z,90.60
2018-09-26T21:00:15.748Z,90.70
2018-09-26T21:02:44.537Z,90.80
2018-09-26T21:05:13.207Z,90.80
2018-09-26T21:07:42.000Z,90.80
2018-09-26T21:10:10.900Z,90.90
2018-09-26T21:12:39.754Z,91.00
2018-09-26T21:15:08.877Z,91.00
2018-09-26T21:17:37.678Z,91.10
2018-09-26T21:20:06.411Z,91.10
2018-09-26T21:22:35.389Z,91.20
2018-09-26T21:25:04.292Z,91.20
2018-09-26T21:27:33.942Z,91.20
2018-09-26T21:30:02.763Z,91.30
2018-09-26T21:32:31.535Z,91.30
2018-09-26T21:35:00.312Z,91.40
2018-09-26T21:37:29.114Z,91.40
2018-09-26T21:39:57.901Z,91.50
2018-09-26T21:42:27.940Z,91.60
2018-09-26T21:44:56.768Z,91.60
2018-09-26T21:47:25.464Z,91.70
2018-09-26T21:49:54.297Z,91.70
2018-09-26T21:52:23.172Z,91.80
2018-09-26T21:54:51.950Z,91.80
2018-09-26T21:57:21.184Z,91.90
2018-09-26T21:59:49.921Z,92.00
2018-09-26T22:02:18.750Z,92.00
2018-09-26T22:04:47.510Z,92.10
2018-09-26T22:07:16.259Z,92.20
2018-09-26T22:09:45.591Z,92.20
2018-09-26T22:12:14.541Z,92.30
2018-09-26T22:14:43.333Z,92.30
2018-09-26T22:17:12.620Z,92.30
2018-09-26T22:19:43.215Z,92.40
2018-09-26T22:22:11.977Z,92.40
2018-09-26T22:24:40.765Z,92.50
2018-09-26T22:27:09.461Z,92.50
2018-09-26T22:29:38.157Z,92.60
2018-09-26T22:32:06.917Z,92.60
2018-09-26T22:34:35.637Z,92.70
2018-09-26T22:37:04.374Z,92.70
2018-09-26T22:39:33.242Z,92.80
2018-09-26T22:42:02.097Z,92.90
2018-09-26T22:44:30.770Z,92.90
2018-09-26T22:46:59.570Z,93.00
2018-09-26T22:49:28.369Z,93.00
2018-09-26T22:51:57.161Z,93.00
2018-09-26T22:54:26.005Z,93.00
2018-09-26T22:56:54.739Z,93.10
2018-09-26T22:59:23.604Z,93.10
2018-09-26T23:01:52.357Z,93.20
2018-09-26T23:04:21.176Z,93.20
2018-09-26T23:06:49.903Z,93.30
2018-09-26T23:09:18.585Z,93.20
2018-09-26T23:11:47.515Z,93.30
2018-09-26T23:14:16.238Z,93.30
2018-09-26T23:16:44.975Z,93.40
2018-09-26T23:19:13.709Z,93.40
2018-09-26T23:21:42.466Z,93.40
2018-09-26T23:24:11.168Z,93.40
2018-09-26T23:26:39.901Z,93.70
2018-09-26T23:29:08.657Z,93.40
2018-09-26T23:31:37.439Z,93.50
2018-09-26T23:34:06.165Z,93.50
2018-09-26T23:36:34.892Z,93.50
2018-09-26T23:39:05.729Z,93.50
2018-09-26T23:41:34.517Z,93.60
2018-09-26T23:44:03.232Z,93.70
2018-09-26T23:46:32.063Z,93.70
2018-09-26T23:49:00.774Z,93.70
2018-09-26T23:51:29.640Z,93.80
2018-09-26T23:53:58.891Z,93.90
2018-09-26T23:56:27.705Z,93.90
2018-09-26T23:58:56.804Z,94.00
